sensor_id;sensor_type;location;lat;lon;timestamp;P1;durP1;ratioP1;P2;durP2;ratioP2
71937;SDS011;59810;48.800;9.086;2023-03-01T00:02:22;21.80;;;9.07;;
71937;SDS011;59810;48.800;9.086;2023-03-01T00:04:48;25.50;;;8.93;;
71937;SDS011;59810;48.800;9.086;2023-03-01T00:07:14;22.17;;;8.73;;
71937;SDS011;59810;48.800;9.086;2023-03-01T00:09:39;22.63;;;9.33;;
71937;SDS011;59810;48.800;9.086;2023-03-01T00:12:05;19.38;;;8.50;;
71937;SDS011;59810;48.800;9.086;2023-03-01T00:14:31;20.48;;;8.73;;
71937;SDS011;59810;48.800;9.086;2023-03-01T00:16:59;23.17;;;9.83;;
71937;SDS011;59810;48.800;9.086;2023-03-01T00:19:24;27.08;;;10.00;;
71937;SDS011;59810;48.800;9.086;2023-03-01T00:21:52;25.03;;;10.10;;
71937;SDS011;59810;48.800;9.086;2023-03-01T00:24:17;22.73;;;8.85;;
71937;SDS011;59810;48.800;9.086;2023-03-01T00:26:43;21.77;;;9.07;;
71937;SDS011;59810;48.800;9.086;2023-03-01T00:29:08;24.73;;;9.13;;
71937;SDS011;59810;48.800;9.086;2023-03-01T00:31:36;24.02;;;8.98;;
71937;SDS011;59810;48.800;9.086;2023-03-01T00:34:02;23.87;;;9.07;;
71937;SDS011;59810;48.800;9.086;2023-03-01T00:36:30;22.27;;;9.05;;
71937;SDS011;59810;48.800;9.086;2023-03-01T00:38:58;19.73;;;8.38;;
71937;SDS011;59810;48.800;9.086;2023-03-01T00:41:23;24.23;;;8.97;;
71937;SDS011;59810;48.800;9.086;2023-03-01T00:43:52;23.30;;;9.90;;
71937;SDS011;59810;48.800;9.086;2023-03-01T00:46:19;25.05;;;9.23;;
71937;SDS011;59810;48.800;9.086;2023-03-01T00:48:47;22.98;;;9.32;;
71937;SDS011;59810;48.800;9.086;2023-03-01T00:51:14;26.80;;;9.20;;
71937;SDS011;59810;48.800;9.086;2023-03-01T00:53:42;25.73;;;10.20;;
71937;SDS011;59810;48.800;9.086;2023-03-01T00:56:09;22.17;;;9.25;;
71937;SDS011;59810;48.800;9.086;2023-03-01T00:58:35;22.95;;;8.90;;
71937;SDS011;59810;48.800;9.086;2023-03-01T01:01:06;26.40;;;9.80;;
71937;SDS011;59810;48.800;9.086;2023-03-01T01:03:43;21.35;;;8.75;;
71937;SDS011;59810;48.800;9.086;2023-03-01T01:06:22;25.93;;;9.07;;
71937;SDS011;59810;48.800;9.086;2023-03-01T01:08:52;22.38;;;9.35;;
71937;SDS011;59810;48.800;9.086;2023-03-01T01:11:19;23.70;;;9.43;;
71937;SDS011;59810;48.800;9.086;2023-03-01T01:13:46;27.27;;;9.85;;
71937;SDS011;59810;48.800;9.086;2023-03-01T01:16:12;21.42;;;8.82;;
71937;SDS011;59810;48.800;9.086;2023-03-01T01:18:44;21.37;;;8.30;;
71937;SDS011;59810;48.800;9.086;2023-03-01T01:21:12;22.00;;;8.98;;
71937;SDS011;59810;48.800;9.086;2023-03-01T01:23:39;19.40;;;8.45;;
71937;SDS011;59810;48.800;9.086;2023-03-01T01:26:10;26.23;;;9.13;;
71937;SDS011;59810;48.800;9.086;2023-03-01T01:28:37;23.95;;;9.13;;
71937;SDS011;59810;48.800;9.086;2023-03-01T01:31:03;25.13;;;9.20;;
71937;SDS011;59810;48.800;9.086;2023-03-01T01:33:29;24.45;;;9.40;;
71937;SDS011;59810;48.800;9.086;2023-03-01T01:35:56;22.98;;;9.43;;
71937;SDS011;59810;48.800;9.086;2023-03-01T01:38:21;19.13;;;8.47;;
71937;SDS011;59810;48.800;9.086;2023-03-01T01:40:49;23.25;;;8.88;;
71937;SDS011;59810;48.800;9.086;2023-03-01T01:43:20;21.60;;;9.45;;
71937;SDS011;59810;48.800;9.086;2023-03-01T01:45:48;23.67;;;9.18;;
71937;SDS011;59810;48.800;9.086;2023-03-01T01:48:16;29.30;;;10.17;;
71937;SDS011;59810;48.800;9.086;2023-03-01T01:50:45;28.80;;;9.55;;
71937;SDS011;59810;48.800;9.086;2023-03-01T01:53:24;22.35;;;8.80;;
71937;SDS011;59810;48.800;9.086;2023-03-01T01:55:52;21.52;;;8.80;;
71937;SDS011;59810;48.800;9.086;2023-03-01T01:58:21;20.60;;;8.18;;
71937;SDS011;59810;48.800;9.086;2023-03-01T02:00:49;26.43;;;9.40;;
71937;SDS011;59810;48.800;9.086;2023-03-01T02:03:17;23.15;;;9.43;;
71937;SDS011;59810;48.800;9.086;2023-03-01T02:08:44;23.60;;;9.73;;
71937;SDS011;59810;48.800;9.086;2023-03-01T02:11:12;19.52;;;8.30;;
71937;SDS011;59810;48.800;9.086;2023-03-01T02:13:44;22.15;;;9.05;;
71937;SDS011;59810;48.800;9.086;2023-03-01T02:16:13;21.83;;;9.15;;
71937;SDS011;59810;48.800;9.086;2023-03-01T02:18:40;25.50;;;9.68;;
71937;SDS011;59810;48.800;9.086;2023-03-01T02:21:10;23.73;;;9.03;;
71937;SDS011;59810;48.800;9.086;2023-03-01T02:23:56;27.42;;;9.27;;
71937;SDS011;59810;48.800;9.086;2023-03-01T02:29:01;21.90;;;9.18;;
71937;SDS011;59810;48.800;9.086;2023-03-01T02:31:27;24.47;;;9.20;;
71937;SDS011;59810;48.800;9.086;2023-03-01T02:34:12;23.25;;;9.25;;
71937;SDS011;59810;48.800;9.086;2023-03-01T02:36:41;18.98;;;8.70;;
71937;SDS011;59810;48.800;9.086;2023-03-01T02:39:12;27.02;;;8.88;;
71937;SDS011;59810;48.800;9.086;2023-03-01T02:41:48;22.65;;;8.90;;
71937;SDS011;59810;48.800;9.086;2023-03-01T02:44:19;25.17;;;9.37;;
71937;SDS011;59810;48.800;9.086;2023-03-01T02:46:47;26.75;;;9.07;;
71937;SDS011;59810;48.800;9.086;2023-03-01T02:49:18;21.73;;;8.85;;
71937;SDS011;59810;48.800;9.086;2023-03-01T02:55:06;22.48;;;8.95;;
71937;SDS011;59810;48.800;9.086;2023-03-01T02:57:34;22.97;;;8.50;;
71937;SDS011;59810;48.800;9.086;2023-03-01T03:00:07;22.73;;;8.77;;
71937;SDS011;59810;48.800;9.086;2023-03-01T03:02:44;19.85;;;8.02;;
71937;SDS011;59810;48.800;9.086;2023-03-01T03:05:12;22.83;;;9.77;;
71937;SDS011;59810;48.800;9.086;2023-03-01T03:07:41;23.38;;;8.60;;
71937;SDS011;59810;48.800;9.086;2023-03-01T03:10:09;21.47;;;8.97;;
71937;SDS011;59810;48.800;9.086;2023-03-01T03:12:40;22.27;;;8.80;;
71937;SDS011;59810;48.800;9.086;2023-03-01T03:15:07;24.30;;;9.10;;
71937;SDS011;59810;48.800;9.086;2023-03-01T03:17:38;28.75;;;10.80;;
71937;SDS011;59810;48.800;9.086;2023-03-01T03:20:07;20.70;;;8.07;;
71937;SDS011;59810;48.800;9.086;2023-03-01T03:22:38;21.30;;;8.37;;
71937;SDS011;59810;48.800;9.086;2023-03-01T03:25:05;22.40;;;8.88;;
71937;SDS011;59810;48.800;9.086;2023-03-01T03:27:35;22.02;;;8.25;;
71937;SDS011;59810;48.800;9.086;2023-03-01T03:30:05;22.10;;;9.05;;
71937;SDS011;59810;48.800;9.086;2023-03-01T03:32:37;19.40;;;8.10;;
71937;SDS011;59810;48.800;9.086;2023-03-01T03:35:04;26.63;;;10.30;;
71937;SDS011;59810;48.800;9.086;2023-03-01T03:37:35;20.30;;;8.77;;
71937;SDS011;59810;48.800;9.086;2023-03-01T03:40:20;25.70;;;10.23;;
71937;SDS011;59810;48.800;9.086;2023-03-01T03:42:46;20.77;;;9.03;;
71937;SDS011;59810;48.800;9.086;2023-03-01T03:45:11;20.17;;;8.33;;
71937;SDS011;59810;48.800;9.086;2023-03-01T03:50:06;21.25;;;8.77;;
71937;SDS011;59810;48.800;9.086;2023-03-01T03:52:31;24.00;;;9.93;;
71937;SDS011;59810;48.800;9.086;2023-03-01T03:54:57;25.33;;;9.73;;
71937;SDS011;59810;48.800;9.086;2023-03-01T03:57:22;22.50;;;9.17;;
71937;SDS011;59810;48.800;9.086;2023-03-01T03:59:47;24.50;;;9.33;;
71937;SDS011;59810;48.800;9.086;2023-03-01T04:02:13;24.90;;;8.63;;
71937;SDS011;59810;48.800;9.086;2023-03-01T04:04:46;23.58;;;8.63;;
71937;SDS011;59810;48.800;9.086;2023-03-01T04:07:14;22.75;;;8.93;;
71937;SDS011;59810;48.800;9.086;2023-03-01T04:09:41;24.85;;;9.45;;
71937;SDS011;59810;48.800;9.086;2023-03-01T04:12:07;25.40;;;9.27;;
71937;SDS011;59810;48.800;9.086;2023-03-01T04:14:33;24.33;;;9.57;;
71937;SDS011;59810;48.800;9.086;2023-03-01T04:17:01;21.77;;;9.25;;
71937;SDS011;59810;48.800;9.086;2023-03-01T04:19:29;21.90;;;9.15;;
71937;SDS011;59810;48.800;9.086;2023-03-01T04:22:04;21.53;;;8.83;;
71937;SDS011;59810;48.800;9.086;2023-03-01T04:24:34;22.02;;;9.13;;
71937;SDS011;59810;48.800;9.086;2023-03-01T04:27:00;25.48;;;9.27;;
71937;SDS011;59810;48.800;9.086;2023-03-01T04:29:26;20.92;;;8.45;;
71937;SDS011;59810;48.800;9.086;2023-03-01T04:31:52;20.03;;;8.83;;
71937;SDS011;59810;48.800;9.086;2023-03-01T04:34:17;23.10;;;9.33;;
71937;SDS011;59810;48.800;9.086;2023-03-01T04:36:43;20.42;;;8.77;;
71937;SDS011;59810;48.800;9.086;2023-03-01T04:39:08;22.77;;;9.30;;
71937;SDS011;59810;48.800;9.086;2023-03-01T04:41:37;22.33;;;9.20;;
71937;SDS011;59810;48.800;9.086;2023-03-01T04:44:08;20.27;;;8.82;;
71937;SDS011;59810;48.800;9.086;2023-03-01T04:46:34;26.08;;;10.10;;
71937;SDS011;59810;48.800;9.086;2023-03-01T04:49:00;19.92;;;9.73;;
71937;SDS011;59810;48.800;9.086;2023-03-01T04:51:25;22.43;;;9.37;;
71937;SDS011;59810;48.800;9.086;2023-03-01T04:53:51;23.90;;;9.20;;
71937;SDS011;59810;48.800;9.086;2023-03-01T04:56:16;24.65;;;9.30;;
71937;SDS011;59810;48.800;9.086;2023-03-01T04:58:45;24.40;;;10.57;;
71937;SDS011;59810;48.800;9.086;2023-03-01T05:01:12;22.27;;;9.00;;
71937;SDS011;59810;48.800;9.086;2023-03-01T05:03:51;24.80;;;9.50;;
71937;SDS011;59810;48.800;9.086;2023-03-01T05:06:17;24.73;;;9.73;;
71937;SDS011;59810;48.800;9.086;2023-03-01T05:08:46;21.85;;;9.80;;
71937;SDS011;59810;48.800;9.086;2023-03-01T05:11:11;22.13;;;9.27;;
71937;SDS011;59810;48.800;9.086;2023-03-01T05:13:37;21.20;;;9.20;;
71937;SDS011;59810;48.800;9.086;2023-03-01T05:16:04;24.10;;;9.55;;
71937;SDS011;59810;48.800;9.086;2023-03-01T05:18:33;20.90;;;8.63;;
71937;SDS011;59810;48.800;9.086;2023-03-01T05:21:03;23.10;;;9.07;;
71937;SDS011;59810;48.800;9.086;2023-03-01T05:23:41;22.23;;;10.10;;
71937;SDS011;59810;48.800;9.086;2023-03-01T05:26:07;25.35;;;9.73;;
71937;SDS011;59810;48.800;9.086;2023-03-01T05:28:33;24.20;;;9.57;;
71937;SDS011;59810;48.800;9.086;2023-03-01T05:30:59;22.42;;;9.38;;
71937;SDS011;59810;48.800;9.086;2023-03-01T05:33:24;21.43;;;9.10;;
71937;SDS011;59810;48.800;9.086;2023-03-01T05:35:50;26.40;;;9.65;;
71937;SDS011;59810;48.800;9.086;2023-03-01T05:38:16;23.75;;;10.05;;
71937;SDS011;59810;48.800;9.086;2023-03-01T05:40:46;27.48;;;9.90;;
71937;SDS011;59810;48.800;9.086;2023-03-01T05:43:13;28.88;;;10.95;;
71937;SDS011;59810;48.800;9.086;2023-03-01T05:45:40;27.50;;;10.50;;
71937;SDS011;59810;48.800;9.086;2023-03-01T05:48:06;21.05;;;9.93;;
71937;SDS011;59810;48.800;9.086;2023-03-01T05:50:34;25.08;;;10.25;;
71937;SDS011;59810;48.800;9.086;2023-03-01T05:53:02;23.20;;;9.77;;
71937;SDS011;59810;48.800;9.086;2023-03-01T05:55:32;23.27;;;9.77;;
71937;SDS011;59810;48.800;9.086;2023-03-01T05:57:59;25.25;;;10.73;;
71937;SDS011;59810;48.800;9.086;2023-03-01T06:00:26;22.58;;;9.40;;
71937;SDS011;59810;48.800;9.086;2023-03-01T06:02:53;27.15;;;10.60;;
71937;SDS011;59810;48.800;9.086;2023-03-01T06:05:19;22.02;;;10.02;;
71937;SDS011;59810;48.800;9.086;2023-03-01T06:07:45;26.20;;;10.77;;
71937;SDS011;59810;48.800;9.086;2023-03-01T06:10:12;26.17;;;9.65;;
71937;SDS011;59810;48.800;9.086;2023-03-01T06:12:38;22.73;;;9.32;;
71937;SDS011;59810;48.800;9.086;2023-03-01T06:15:05;24.42;;;9.40;;
71937;SDS011;59810;48.800;9.086;2023-03-01T06:17:34;23.83;;;9.50;;
71937;SDS011;59810;48.800;9.086;2023-03-01T06:20:03;26.98;;;9.70;;
71937;SDS011;59810;48.800;9.086;2023-03-01T06:22:49;24.80;;;10.15;;
71937;SDS011;59810;48.800;9.086;2023-03-01T06:25:18;27.25;;;10.13;;
71937;SDS011;59810;48.800;9.086;2023-03-01T06:27:46;24.00;;;10.25;;
71937;SDS011;59810;48.800;9.086;2023-03-01T06:30:14;22.33;;;9.13;;
71937;SDS011;59810;48.800;9.086;2023-03-01T06:32:41;25.40;;;9.55;;
71937;SDS011;59810;48.800;9.086;2023-03-01T06:35:12;22.02;;;9.50;;
71937;SDS011;59810;48.800;9.086;2023-03-01T06:37:42;23.17;;;8.98;;
71937;SDS011;59810;48.800;9.086;2023-03-01T06:40:08;26.20;;;10.03;;
71937;SDS011;59810;48.800;9.086;2023-03-01T06:42:36;27.25;;;10.07;;
71937;SDS011;59810;48.800;9.086;2023-03-01T06:45:03;24.52;;;10.18;;
71937;SDS011;59810;48.800;9.086;2023-03-01T06:47:30;26.35;;;10.25;;
71937;SDS011;59810;48.800;9.086;2023-03-01T06:49:58;29.42;;;10.90;;
71937;SDS011;59810;48.800;9.086;2023-03-01T06:52:26;22.87;;;9.17;;
71937;SDS011;59810;48.800;9.086;2023-03-01T06:54:54;24.83;;;10.07;;
71937;SDS011;59810;48.800;9.086;2023-03-01T06:57:19;22.93;;;9.40;;
71937;SDS011;59810;48.800;9.086;2023-03-01T06:59:46;23.93;;;10.20;;
71937;SDS011;59810;48.800;9.086;2023-03-01T07:02:14;25.20;;;9.75;;
71937;SDS011;59810;48.800;9.086;2023-03-01T07:04:40;24.67;;;10.18;;
71937;SDS011;59810;48.800;9.086;2023-03-01T07:07:08;27.20;;;10.55;;
71937;SDS011;59810;48.800;9.086;2023-03-01T07:09:36;24.70;;;9.55;;
71937;SDS011;59810;48.800;9.086;2023-03-01T07:12:02;25.93;;;9.30;;
71937;SDS011;59810;48.800;9.086;2023-03-01T07:14:27;32.00;;;11.63;;
71937;SDS011;59810;48.800;9.086;2023-03-01T07:16:53;26.80;;;10.23;;
71937;SDS011;59810;48.800;9.086;2023-03-01T07:19:19;23.87;;;9.27;;
71937;SDS011;59810;48.800;9.086;2023-03-01T07:21:45;27.65;;;10.00;;
71937;SDS011;59810;48.800;9.086;2023-03-01T07:24:10;22.37;;;9.30;;
71937;SDS011;59810;48.800;9.086;2023-03-01T07:26:38;24.17;;;9.40;;
71937;SDS011;59810;48.800;9.086;2023-03-01T07:29:04;28.37;;;10.23;;
71937;SDS011;59810;48.800;9.086;2023-03-01T07:31:31;22.55;;;9.18;;
71937;SDS011;59810;48.800;9.086;2023-03-01T07:33:59;26.53;;;10.23;;
71937;SDS011;59810;48.800;9.086;2023-03-01T07:36:26;28.33;;;10.35;;
71937;SDS011;59810;48.800;9.086;2023-03-01T07:38:52;27.67;;;10.60;;
71937;SDS011;59810;48.800;9.086;2023-03-01T07:41:17;26.40;;;10.37;;
71937;SDS011;59810;48.800;9.086;2023-03-01T07:43:43;26.25;;;10.23;;
71937;SDS011;59810;48.800;9.086;2023-03-01T07:46:10;23.83;;;10.47;;
71937;SDS011;59810;48.800;9.086;2023-03-01T07:48:35;28.25;;;10.55;;
71937;SDS011;59810;48.800;9.086;2023-03-01T07:51:01;27.10;;;10.47;;
71937;SDS011;59810;48.800;9.086;2023-03-01T07:53:29;25.23;;;10.17;;
71937;SDS011;59810;48.800;9.086;2023-03-01T07:56:03;25.05;;;10.00;;
71937;SDS011;59810;48.800;9.086;2023-03-01T07:58:30;26.63;;;10.18;;
71937;SDS011;59810;48.800;9.086;2023-03-01T08:00:56;24.90;;;10.30;;
71937;SDS011;59810;48.800;9.086;2023-03-01T08:03:21;25.50;;;10.03;;
71937;SDS011;59810;48.800;9.086;2023-03-01T08:05:46;26.10;;;10.20;;
71937;SDS011;59810;48.800;9.086;2023-03-01T08:08:12;28.20;;;10.27;;
71937;SDS011;59810;48.800;9.086;2023-03-01T08:10:37;25.63;;;10.73;;
71937;SDS011;59810;48.800;9.086;2023-03-01T08:13:02;23.93;;;9.97;;
71937;SDS011;59810;48.800;9.086;2023-03-01T08:15:28;27.03;;;10.60;;
71937;SDS011;59810;48.800;9.086;2023-03-01T08:17:53;31.00;;;11.90;;
71937;SDS011;59810;48.800;9.086;2023-03-01T08:20:18;25.33;;;10.77;;
71937;SDS011;59810;48.800;9.086;2023-03-01T08:22:44;24.35;;;9.95;;
71937;SDS011;59810;48.800;9.086;2023-03-01T08:25:09;27.60;;;11.10;;
71937;SDS011;59810;48.800;9.086;2023-03-01T08:27:34;28.23;;;11.90;;
71937;SDS011;59810;48.800;9.086;2023-03-01T08:30:02;27.92;;;10.48;;
71937;SDS011;59810;48.800;9.086;2023-03-01T08:32:32;30.58;;;11.98;;
71937;SDS011;59810;48.800;9.086;2023-03-01T08:35:01;26.20;;;10.50;;
71937;SDS011;59810;48.800;9.086;2023-03-01T08:37:26;27.83;;;11.10;;
71937;SDS011;59810;48.800;9.086;2023-03-01T08:39:51;25.58;;;10.65;;
71937;SDS011;59810;48.800;9.086;2023-03-01T08:42:17;28.20;;;12.27;;
71937;SDS011;59810;48.800;9.086;2023-03-01T08:44:44;25.10;;;9.97;;
71937;SDS011;59810;48.800;9.086;2023-03-01T08:47:09;25.60;;;10.65;;
71937;SDS011;59810;48.800;9.086;2023-03-01T08:49:35;25.93;;;10.83;;
71937;SDS011;59810;48.800;9.086;2023-03-01T08:52:01;27.63;;;10.60;;
71937;SDS011;59810;48.800;9.086;2023-03-01T08:54:29;25.67;;;11.18;;
71937;SDS011;59810;48.800;9.086;2023-03-01T08:56:55;28.80;;;10.73;;
71937;SDS011;59810;48.800;9.086;2023-03-01T08:59:23;29.45;;;11.73;;
71937;SDS011;59810;48.800;9.086;2023-03-01T09:01:50;25.27;;;10.90;;
71937;SDS011;59810;48.800;9.086;2023-03-01T09:04:15;24.02;;;10.38;;
71937;SDS011;59810;48.800;9.086;2023-03-01T09:06:41;24.47;;;9.73;;
71937;SDS011;59810;48.800;9.086;2023-03-01T09:09:07;27.70;;;11.43;;
71937;SDS011;59810;48.800;9.086;2023-03-01T09:11:44;25.40;;;10.50;;
71937;SDS011;59810;48.800;9.086;2023-03-01T09:14:11;25.87;;;10.40;;
71937;SDS011;59810;48.800;9.086;2023-03-01T09:16:37;27.17;;;11.32;;
71937;SDS011;59810;48.800;9.086;2023-03-01T09:19:03;28.37;;;11.70;;
71937;SDS011;59810;48.800;9.086;2023-03-01T09:21:28;30.60;;;10.88;;
71937;SDS011;59810;48.800;9.086;2023-03-01T09:23:55;26.10;;;10.70;;
71937;SDS011;59810;48.800;9.086;2023-03-01T09:26:21;24.52;;;9.90;;
71937;SDS011;59810;48.800;9.086;2023-03-01T09:28:48;25.35;;;11.02;;
71937;SDS011;59810;48.800;9.086;2023-03-01T09:31:16;27.75;;;10.68;;
71937;SDS011;59810;48.800;9.086;2023-03-01T09:33:42;27.63;;;11.03;;
71937;SDS011;59810;48.800;9.086;2023-03-01T09:36:13;25.90;;;10.73;;
71937;SDS011;59810;48.800;9.086;2023-03-01T09:38:44;25.15;;;11.45;;
71937;SDS011;59810;48.800;9.086;2023-03-01T09:41:24;23.63;;;10.07;;
71937;SDS011;59810;48.800;9.086;2023-03-01T09:46:38;29.67;;;10.97;;
71937;SDS011;59810;48.800;9.086;2023-03-01T09:49:12;27.95;;;11.55;;
71937;SDS011;59810;48.800;9.086;2023-03-01T09:51:42;29.00;;;11.52;;
71937;SDS011;59810;48.800;9.086;2023-03-01T09:54:18;28.75;;;11.68;;
71937;SDS011;59810;48.800;9.086;2023-03-01T09:56:45;24.47;;;10.80;;
71937;SDS011;59810;48.800;9.086;2023-03-01T09:59:24;25.55;;;10.05;;
71937;SDS011;59810;48.800;9.086;2023-03-01T10:07:26;26.02;;;10.88;;
71937;SDS011;59810;48.800;9.086;2023-03-01T10:10:37;25.70;;;11.75;;
71937;SDS011;59810;48.800;9.086;2023-03-01T10:13:10;24.00;;;10.40;;
71937;SDS011;59810;48.800;9.086;2023-03-01T10:16:01;28.30;;;11.63;;
71937;SDS011;59810;48.800;9.086;2023-03-01T10:18:35;29.60;;;11.45;;
71937;SDS011;59810;48.800;9.086;2023-03-01T10:21:05;27.75;;;10.60;;
71937;SDS011;59810;48.800;9.086;2023-03-01T10:23:39;28.25;;;11.65;;
71937;SDS011;59810;48.800;9.086;2023-03-01T10:28:40;24.27;;;10.52;;
71937;SDS011;59810;48.800;9.086;2023-03-01T10:31:20;31.73;;;10.68;;
71937;SDS011;59810;48.800;9.086;2023-03-01T10:33:52;25.13;;;10.53;;
71937;SDS011;59810;48.800;9.086;2023-03-01T10:36:20;24.52;;;11.27;;
71937;SDS011;59810;48.800;9.086;2023-03-01T10:38:47;28.27;;;10.93;;
71937;SDS011;59810;48.800;9.086;2023-03-01T10:41:18;26.85;;;11.32;;
71937;SDS011;59810;48.800;9.086;2023-03-01T10:43:46;22.85;;;10.60;;
71937;SDS011;59810;48.800;9.086;2023-03-01T10:46:33;25.73;;;9.83;;
71937;SDS011;59810;48.800;9.086;2023-03-01T10:49:34;26.05;;;10.38;;
71937;SDS011;59810;48.800;9.086;2023-03-01T10:51:53;23.02;;;10.70;;
71937;SDS011;59810;48.800;9.086;2023-03-01T10:54:22;24.55;;;10.57;;
71937;SDS011;59810;48.800;9.086;2023-03-01T10:56:56;24.92;;;10.15;;
71937;SDS011;59810;48.800;9.086;2023-03-01T11:02:01;24.30;;;10.27;;
71937;SDS011;59810;48.800;9.086;2023-03-01T11:07:35;25.30;;;11.00;;
71937;SDS011;59810;48.800;9.086;2023-03-01T11:13:07;25.30;;;10.97;;
71937;SDS011;59810;48.800;9.086;2023-03-01T11:15:39;22.20;;;10.02;;
71937;SDS011;59810;48.800;9.086;2023-03-01T11:18:04;23.70;;;10.20;;
71937;SDS011;59810;48.800;9.086;2023-03-01T11:20:44;22.20;;;9.93;;
71937;SDS011;59810;48.800;9.086;2023-03-01T11:23:10;24.55;;;10.57;;
71937;SDS011;59810;48.800;9.086;2023-03-01T11:25:46;22.80;;;10.73;;
71937;SDS011;59810;48.800;9.086;2023-03-01T11:28:20;25.05;;;11.13;;
71937;SDS011;59810;48.800;9.086;2023-03-01T11:30:57;21.80;;;11.10;;
71937;SDS011;59810;48.800;9.086;2023-03-01T11:33:47;22.38;;;9.75;;
71937;SDS011;59810;48.800;9.086;2023-03-01T11:36:23;26.02;;;10.85;;
71937;SDS011;59810;48.800;9.086;2023-03-01T11:39:19;24.83;;;10.90;;
71937;SDS011;59810;48.800;9.086;2023-03-01T11:41:53;25.52;;;10.25;;
71937;SDS011;59810;48.800;9.086;2023-03-01T11:44:27;21.83;;;10.03;;
71937;SDS011;59810;48.800;9.086;2023-03-01T11:49:40;23.17;;;9.90;;
71937;SDS011;59810;48.800;9.086;2023-03-01T12:00:58;18.98;;;9.20;;
71937;SDS011;59810;48.800;9.086;2023-03-01T12:08:37;22.35;;;10.32;;
71937;SDS011;59810;48.800;9.086;2023-03-01T12:11:20;22.40;;;9.77;;
71937;SDS011;59810;48.800;9.086;2023-03-01T12:14:02;21.25;;;9.25;;
71937;SDS011;59810;48.800;9.086;2023-03-01T12:21:47;17.38;;;8.70;;
71937;SDS011;59810;48.800;9.086;2023-03-01T12:35:44;21.38;;;9.00;;
71937;SDS011;59810;48.800;9.086;2023-03-01T12:41:25;19.33;;;9.85;;
71937;SDS011;59810;48.800;9.086;2023-03-01T12:44:19;20.02;;;9.77;;
71937;SDS011;59810;48.800;9.086;2023-03-01T12:47:07;20.73;;;9.52;;
71937;SDS011;59810;48.800;9.086;2023-03-01T12:49:45;21.75;;;9.13;;
71937;SDS011;59810;48.800;9.086;2023-03-01T12:55:18;20.80;;;9.35;;
71937;SDS011;59810;48.800;9.086;2023-03-01T12:57:57;20.08;;;9.13;;
71937;SDS011;59810;48.800;9.086;2023-03-01T13:00:35;21.52;;;9.60;;
71937;SDS011;59810;48.800;9.086;2023-03-01T13:06:08;20.77;;;9.33;;
71937;SDS011;59810;48.800;9.086;2023-03-01T13:08:41;21.35;;;9.50;;
71937;SDS011;59810;48.800;9.086;2023-03-01T13:11:22;19.52;;;9.48;;
71937;SDS011;59810;48.800;9.086;2023-03-01T13:13:51;22.67;;;9.98;;
71937;SDS011;59810;48.800;9.086;2023-03-01T13:16:22;22.85;;;9.55;;
71937;SDS011;59810;48.800;9.086;2023-03-01T13:21:42;24.30;;;10.23;;
71937;SDS011;59810;48.800;9.086;2023-03-01T13:29:31;21.02;;;9.32;;
71937;SDS011;59810;48.800;9.086;2023-03-01T13:32:12;19.73;;;9.50;;
71937;SDS011;59810;48.800;9.086;2023-03-01T13:34:46;20.77;;;9.90;;
71937;SDS011;59810;48.800;9.086;2023-03-01T13:37:23;20.17;;;9.45;;
71937;SDS011;59810;48.800;9.086;2023-03-01T13:39:59;22.85;;;10.15;;
71937;SDS011;59810;48.800;9.086;2023-03-01T13:42:45;17.80;;;9.63;;
71937;SDS011;59810;48.800;9.086;2023-03-01T13:45:24;19.73;;;9.37;;
71937;SDS011;59810;48.800;9.086;2023-03-01T13:48:08;22.52;;;10.23;;
71937;SDS011;59810;48.800;9.086;2023-03-01T13:50:50;21.67;;;10.38;;
71937;SDS011;59810;48.800;9.086;2023-03-01T13:53:20;23.67;;;10.30;;
71937;SDS011;59810;48.800;9.086;2023-03-01T13:55:55;23.27;;;10.13;;
71937;SDS011;59810;48.800;9.086;2023-03-01T13:58:43;21.77;;;10.00;;
71937;SDS011;59810;48.800;9.086;2023-03-01T14:01:23;21.60;;;9.98;;
71937;SDS011;59810;48.800;9.086;2023-03-01T14:03:49;20.58;;;9.77;;
71937;SDS011;59810;48.800;9.086;2023-03-01T14:06:15;19.77;;;10.30;;
71937;SDS011;59810;48.800;9.086;2023-03-01T14:08:45;23.48;;;10.27;;
71937;SDS011;59810;48.800;9.086;2023-03-01T14:11:32;24.67;;;10.45;;
71937;SDS011;59810;48.800;9.086;2023-03-01T14:19:38;21.90;;;10.03;;
71937;SDS011;59810;48.800;9.086;2023-03-01T14:24:56;23.00;;;9.98;;
71937;SDS011;59810;48.800;9.086;2023-03-01T14:27:35;26.92;;;11.05;;
71937;SDS011;59810;48.800;9.086;2023-03-01T14:30:10;24.33;;;11.02;;
71937;SDS011;59810;48.800;9.086;2023-03-01T14:32:40;22.33;;;10.40;;
71937;SDS011;59810;48.800;9.086;2023-03-01T14:38:01;20.57;;;9.70;;
71937;SDS011;59810;48.800;9.086;2023-03-01T14:42:58;21.25;;;9.80;;
71937;SDS011;59810;48.800;9.086;2023-03-01T14:45:26;24.45;;;11.38;;
71937;SDS011;59810;48.800;9.086;2023-03-01T14:47:54;21.60;;;11.40;;
71937;SDS011;59810;48.800;9.086;2023-03-01T14:50:24;21.43;;;10.30;;
71937;SDS011;59810;48.800;9.086;2023-03-01T14:52:54;23.98;;;10.50;;
71937;SDS011;59810;48.800;9.086;2023-03-01T14:55:27;22.42;;;10.25;;
71937;SDS011;59810;48.800;9.086;2023-03-01T14:57:56;24.40;;;11.45;;
71937;SDS011;59810;48.800;9.086;2023-03-01T15:00:24;19.30;;;9.55;;
71937;SDS011;59810;48.800;9.086;2023-03-01T15:02:53;23.03;;;11.30;;
71937;SDS011;59810;48.800;9.086;2023-03-01T15:05:29;23.92;;;10.10;;
71937;SDS011;59810;48.800;9.086;2023-03-01T15:07:59;22.48;;;10.40;;
71937;SDS011;59810;48.800;9.086;2023-03-01T15:10:28;19.90;;;10.77;;
71937;SDS011;59810;48.800;9.086;2023-03-01T15:12:56;22.42;;;11.15;;
71937;SDS011;59810;48.800;9.086;2023-03-01T15:15:36;23.93;;;10.43;;
71937;SDS011;59810;48.800;9.086;2023-03-01T15:18:13;24.98;;;11.10;;
71937;SDS011;59810;48.800;9.086;2023-03-01T15:20:41;25.25;;;10.35;;
71937;SDS011;59810;48.800;9.086;2023-03-01T15:23:16;21.80;;;9.93;;
71937;SDS011;59810;48.800;9.086;2023-03-01T15:25:46;22.95;;;11.27;;
71937;SDS011;59810;48.800;9.086;2023-03-01T15:28:16;21.70;;;10.20;;
71937;SDS011;59810;48.800;9.086;2023-03-01T15:30:45;21.98;;;10.52;;
71937;SDS011;59810;48.800;9.086;2023-03-01T15:33:38;21.17;;;9.70;;
71937;SDS011;59810;48.800;9.086;2023-03-01T15:38:56;21.60;;;8.65;;
71937;SDS011;59810;48.800;9.086;2023-03-01T15:41:28;21.92;;;10.35;;
71937;SDS011;59810;48.800;9.086;2023-03-01T15:43:59;23.27;;;10.55;;
71937;SDS011;59810;48.800;9.086;2023-03-01T15:46:29;24.33;;;10.50;;
71937;SDS011;59810;48.800;9.086;2023-03-01T15:51:58;22.92;;;10.50;;
71937;SDS011;59810;48.800;9.086;2023-03-01T15:54:24;20.73;;;11.00;;
71937;SDS011;59810;48.800;9.086;2023-03-01T15:56:51;20.45;;;9.73;;
71937;SDS011;59810;48.800;9.086;2023-03-01T15:59:17;22.05;;;10.48;;
71937;SDS011;59810;48.800;9.086;2023-03-01T16:01:43;25.77;;;10.07;;
71937;SDS011;59810;48.800;9.086;2023-03-01T16:04:10;21.88;;;9.90;;
71937;SDS011;59810;48.800;9.086;2023-03-01T16:06:41;25.02;;;10.45;;
71937;SDS011;59810;48.800;9.086;2023-03-01T16:09:06;19.80;;;9.03;;
71937;SDS011;59810;48.800;9.086;2023-03-01T16:11:32;21.80;;;9.55;;
71937;SDS011;59810;48.800;9.086;2023-03-01T16:14:01;21.17;;;9.57;;
71937;SDS011;59810;48.800;9.086;2023-03-01T16:16:27;23.08;;;9.60;;
71937;SDS011;59810;48.800;9.086;2023-03-01T16:18:53;24.37;;;10.03;;
71937;SDS011;59810;48.800;9.086;2023-03-01T16:21:21;21.83;;;10.02;;
71937;SDS011;59810;48.800;9.086;2023-03-01T16:23:50;22.37;;;9.40;;
71937;SDS011;59810;48.800;9.086;2023-03-01T16:26:17;19.92;;;9.35;;